Meteo Giornale » Osservazioni meteo Svizzera » Lugano

ore: 20:50 - Osservazioni Meteo Lugano
Lat. 46° 0' N Lon. 8° 58' E Alt. 273 metri s.l.m.

coperto_pioggia Europe/Zurich

15 °C

Pioggia Debole

Temp. 24 Ore

14 °C

22 °C

Sud

7.4 Km/h

Dew point 15 °C

Umidità 100 %

Visibilità  9 Km

Il sole sorge alle ore 05:39

Il sole tramonta alle ore 21:02

Data e Ora Cielo e Fenomeni T °C DP °C Um. % Pres. hPa Vis. km Vento km/h
Oggi h: 20:50 coperto_pioggia Pioggia Debole 15 15 100 1016 9 S 7.4
Oggi h: 20:20 coperto_pioggia Pioggia Debole 16 15 93 1015 10 N 3.7
Oggi h: 19:50 nuvoloso_piovaschi Debole Rovescio di Pioggia 16 15 93 1015 10 N 3.7
Oggi h: 19:20 molto_nuvoloso Rovescio nelle Vicinanze 16 15 93 1015 10 N 1.8
Oggi h: 18:50 molto_nuvoloso Molto Nuvoloso 16 15 93 1014 10 N 3.7
Oggi h: 18:20 molto_nuvoloso Molto Nuvoloso 16 15 93 1014 10 N 3.7
Oggi h: 17:50 molto_nuvoloso Molto Nuvoloso 16 15 93 1015 10 N 1.8
Oggi h: 17:20 coperto_pioggia Pioggia Debole 16 15 93 1015 10 N 1.8
Oggi h: 16:50 coperto_pioggia Pioggia Debole 16 15 93 1015 10 N 1.8
Oggi h: 16:20 coperto_pioggia Pioggia 15 15 100 1015 9 N 3.7
Oggi h: 15:50 coperto_pioggia Pioggia 16 14 87 1016 9 N 3.7
Oggi h: 15:20 coperto_pioggia Pioggia Debole Temporale nelle Vicinanze 15 14 93 1015 10 N 3.7
Oggi h: 14:50 coperto_pioggia Pioggia Debole Temporale nelle Vicinanze 16 15 93 1015 10 N 3.7
Oggi h: 14:20 coperto_pioggia Pioggia Debole Temporale nelle Vicinanze 17 13 77 1015 10 N 5.5
Oggi h: 13:50 nuvoloso_temporali Temporale con Pioggia Debole 19 13 68 1014 10 N 3.7
Oggi h: 13:20 coperto_pioggia Pioggia Debole Temporale nelle Vicinanze 20 14 68 1014 10 N 5.5
Oggi h: 12:50 molto_nuvoloso Rovescio nelle Vicinanze 22 13 56 1014 10 S/SO 13
Oggi h: 12:20 molto_nuvoloso Rovescio nelle Vicinanze 22 14 60 1014 10 S/SO 11.1
Oggi h: 11:50 nuvoloso Nuvoloso 22 14 60 1014 10 N 5.5
Oggi h: 11:20 poco_nuvoloso Poco Nuvoloso 20 14 68 1014 10 S 7.4
Oggi h: 10:50 poco_nuvoloso Poco Nuvoloso 20 15 72 1014 10 S/SO 7.4
Oggi h: 10:20 poco_nuvoloso Poco Nuvoloso 20 15 72 1014 10 N 3.7
Oggi h: 09:50 poco_nuvoloso Poco Nuvoloso 19 14 72 1015 10 N 3.7
Oggi h: 09:20 poco_nuvoloso Poco Nuvoloso 18 14 77 1015 10 N 1.8
Oggi h: 08:50 nuvoloso Nuvoloso 17 14 82 1015 10 N 5.5
Oggi h: 08:20 nuvoloso Nuvoloso 15 14 93 1015 10 N 5.5
Oggi h: 07:50 nuvoloso Nuvoloso 15 14 93 1014 10 N 1.8
Oggi h: 07:20 nuvoloso Nuvoloso 14 14 100 1014 10 N 1.8
Oggi h: 06:50 molto_nuvoloso Molto Nuvoloso 14 14 100 1014 10 N 1.8
Oggi h: 06:20 molto_nuvoloso Molto Nuvoloso 14 14 100 1014 10 N 3.7
Oggi h: 05:50 coperto Coperto 14 14 100 1014 10 N 1.8
Oggi h: 05:20 coperto Coperto 14 14 100 1013 10 N 1.8
Oggi h: 04:50 molto_nuvoloso Molto Nuvoloso 14 14 100 1013 10 N 1.8
Oggi h: 04:20 coperto Coperto 14 14 100 1013 10 N 1.8
Oggi h: 03:50 coperto Coperto 15 14 93 1013 10 N 5.5
Oggi h: 03:20 coperto Coperto 15 14 93 1013 10 N 3.7
Oggi h: 02:50 molto_nuvoloso Molto Nuvoloso 15 14 93 1013 10 N 5.5
Oggi h: 02:20 molto_nuvoloso Molto Nuvoloso 15 14 93 1013 10 N 3.7
Oggi h: 01:50 coperto_pioggia Pioggia Debole 15 14 93 1014 10 NO 7.4
Oggi h: 01:20 coperto_pioggia Pioggia Debole 15 14 93 1014 10 N 3.7
Oggi h: 00:50 coperto_pioggia Pioggia 15 13 87 1015 5 N 5.5
Oggi h: 00:20 coperto Coperto 17 12 72 1015 10 N 11.1
Ieri h: 23:50 coperto_temporali Temporale 19 12 63 1014 10 N 9.3
Ieri h: 23:20 nuvoloso_temporali Temporale nelle Vicinanze 17 15 88 1013 10 N 3.7
Ieri h: 22:20 nuvoloso Nuvoloso 17 15 88 1013 10 N 3.7
Ieri h: 21:50 nuvoloso_temporali Temporale nelle Vicinanze 18 14 77 1012 10 N 1.8